Time;durP1;ratioP1;P1;durP2;ratioP2;P2;SDS_P1;SDS_P2;PMS_P1;PMS_P2;Temp;Humidity;BMP_temperature;BMP_pressure;BME280_temperature;BME280_humidity;BME280_pressure;Samples;Min_cycle;Max_cycle;Signal;HPM_P1;HPM_P2
2021/06/02 00:10:05;;;;;;;10.40;3.95;;;;;;;11.04;69.83;99866.69;1759970;79;23297;-47
2021/06/02 00:12:34;;;;;;;6.55;3.58;;;;;;;10.98;70.10;99867.88;1746375;82;20900;-46
2021/06/02 00:15:03;;;;;;;9.25;4.50;;;;;;;10.92;70.28;99865.48;1745183;82;21703;-52
2021/06/02 00:17:31;;;;;;;7.12;3.42;;;;;;;10.90;70.50;99857.92;1744579;82;21468;-53
2021/06/02 00:20:00;;;;;;;8.33;3.30;;;;;;;10.89;70.59;99869.67;1746219;82;20923;-48
2021/06/02 00:22:27;;;;;;;9.63;3.70;;;;;;;10.88;70.76;99865.71;1747706;82;21424;-55
2021/06/02 00:24:55;;;;;;;9.88;3.35;;;;;;;10.85;70.78;99868.06;1746992;81;20932;-57
2021/06/02 00:27:22;;;;;;;13.32;3.08;;;;;;;10.84;70.85;99863.63;1746840;82;21125;-53
2021/06/02 00:29:50;;;;;;;4.50;3.00;;;;;;;10.82;70.88;99860.14;1747162;82;21496;-53
2021/06/02 00:32:20;;;;;;;5.90;3.17;;;;;;;10.84;70.87;99858.23;1747266;82;20943;-47
2021/06/02 00:34:49;;;;;;;4.90;2.92;;;;;;;10.84;70.83;99855.53;1746248;82;20920;-57
2021/06/02 00:37:16;;;;;;;4.95;2.95;;;;;;;10.81;70.65;99850.27;1746371;82;20987;-56
2021/06/02 00:39:47;;;;;;;6.97;3.40;;;;;;;10.81;70.65;99850.27;1745922;82;21125;-56
2021/06/02 00:42:14;;;;;;;4.22;3.33;;;;;;;10.83;70.84;99851.09;1748145;82;20884;-56
2021/06/02 00:44:41;;;;;;;7.05;3.30;;;;;;;10.83;70.92;99845.70;1746021;82;20902;-56
2021/06/02 00:47:09;;;;;;;6.00;3.90;;;;;;;10.82;70.78;99847.13;1746118;82;20932;-56
2021/06/02 00:49:36;;;;;;;8.80;3.22;;;;;;;10.82;70.78;99847.13;1747262;82;21520;-57
2021/06/02 00:52:05;;;;;;;7.20;3.33;;;;;;;10.81;70.99;99850.27;1747577;82;21110;-55
2021/06/02 00:54:37;;;;;;;6.92;3.37;;;;;;;10.80;71.12;99845.84;1746418;82;20995;-56
2021/06/02 00:57:17;;;;;;;6.67;3.35;;;;;;;10.80;71.06;99849.88;1744522;82;20928;-55
2021/06/02 00:59:46;;;;;;;8.73;3.40;;;;;;;10.80;71.00;99844.97;1745656;82;20865;-57
2021/06/02 01:02:16;;;;;;;5.30;3.67;;;;;;;10.80;71.03;99843.14;1746247;82;21045;-56
2021/06/02 01:04:43;;;;;;;6.10;3.25;;;;;;;10.79;71.01;99838.70;1746329;82;21441;-56
2021/06/02 01:07:12;;;;;;;7.15;3.62;;;;;;;10.79;71.13;99836.00;1745341;82;20896;-57
2021/06/02 01:09:55;;;;;;;6.92;3.00;;;;;;;10.77;71.57;99843.31;1737069;80;20967;-56
2021/06/02 01:12:26;;;;;;;5.12;2.95;;;;;;;10.77;71.57;99843.31;1733483;82;20904;-55
2021/06/02 01:14:55;;;;;;;5.05;3.30;;;;;;;10.75;71.30;99832.57;1732260;81;20940;-56
2021/06/02 01:17:26;;;;;;;9.88;3.30;;;;;;;10.76;71.31;99830.78;1733131;82;21100;-56
2021/06/02 01:19:55;;;;;;;6.50;3.20;;;;;;;10.75;71.45;99831.70;1733770;81;20949;-57
2021/06/02 01:22:22;;;;;;;8.35;3.70;;;;;;;10.71;71.63;99827.44;1732315;82;20917;-56
2021/06/02 01:24:49;;;;;;;6.00;3.30;;;;;;;10.72;71.71;99819.73;1733755;82;20969;-46
2021/06/02 01:27:16;;;;;;;7.28;3.83;;;;;;;10.72;71.71;99819.73;1733096;82;20965;-47
2021/06/02 01:29:48;;;;;;;8.58;3.22;;;;;;;10.72;71.70;99833.22;1732800;82;21137;-47
2021/06/02 01:32:46;;;;;;;10.08;3.10;;;;;;;10.71;71.70;99838.22;1734132;82;20900;-47
2021/06/02 01:35:55;;;;;;;6.25;3.33;;;;;;;10.70;71.79;99837.80;1662811;84;21007;-47
2021/06/02 01:39:00;;;;;;;6.65;3.45;;;;;;;10.68;71.98;99839.23;1731570;82;21082;-55
2021/06/02 01:42:04;;;;;;;6.22;3.10;;;;;;;10.64;71.99;99847.55;1733541;82;20905;-56
2021/06/02 01:44:59;;;;;;;4.53;2.85;;;;;;;10.65;72.24;99849.28;1733329;82;21337;-55
2021/06/02 01:47:44;;;;;;;6.00;2.95;;;;;;;10.63;72.20;99837.71;1731787;82;20995;-55
2021/06/02 01:50:41;;;;;;;9.45;3.50;;;;;;;10.57;72.89;99843.41;1732287;82;21417;-48
2021/06/02 01:53:51;;;;;;;5.30;3.20;;;;;;;10.57;72.89;99843.41;1732283;82;21543;-46
2021/06/02 01:56:58;;;;;;;7.80;3.33;;;;;;;10.53;72.75;99839.98;1732114;82;20924;-47
2021/06/02 02:00:13;;;;;;;5.28;3.67;;;;;;;10.54;72.82;99837.67;1732312;82;21178;-47
2021/06/02 02:03:11;;;;;;;5.75;3.40;;;;;;;10.56;72.99;99847.06;1730876;81;21548;-46
2021/06/02 02:06:16;;;;;;;5.42;3.30;;;;;;;10.56;72.99;99847.06;1732423;82;21008;-48
2021/06/02 02:08:53;;;;;;;6.03;3.40;;;;;;;10.56;73.12;99849.76;1732302;81;20949;-47
2021/06/02 02:11:40;;;;;;;3.85;3.25;;;;;;;10.64;72.95;99852.94;1732921;82;20991;-46
2021/06/02 02:14:33;;;;;;;5.72;3.17;;;;;;;10.72;72.62;99857.50;1732761;81;21087;-57
2021/06/02 02:17:24;;;;;;;6.58;3.20;;;;;;;10.79;72.45;99854.89;1731426;82;21029;-49
2021/06/02 02:20:09;;;;;;;4.92;3.37;;;;;;;10.86;72.36;99854.97;1710768;82;20983;-47
2021/06/02 02:23:22;;;;;;;5.45;2.95;;;;;;;10.81;72.25;99856.15;1732507;82;21544;-48
2021/06/02 02:26:31;;;;;;;8.30;3.55;;;;;;;10.77;72.44;99851.41;1731623;82;20916;-47
2021/06/02 02:29:49;;;;;;;5.45;3.60;;;;;;;10.74;72.43;99850.19;1732346;82;21997;-48
2021/06/02 02:33:10;;;;;;;6.17;3.35;;;;;;;10.73;72.56;99857.89;1731658;82;20893;-47
2021/06/02 02:35:48;;;;;;;5.00;3.33;;;;;;;10.70;72.82;99856.68;1732012;82;20905;-48
2021/06/02 02:38:39;;;;;;;5.85;2.90;;;;;;;10.66;72.85;99867.24;1732381;82;21440;-46
2021/06/02 02:41:31;;;;;;;3.90;2.90;;;;;;;10.63;73.03;99866.03;1732938;82;20905;-48
2021/06/02 02:44:07;;;;;;;;;;;;;;;10.62;73.08;99866.51;1734025;82;21137;-48
2021/06/02 02:47:04;;;;;;;7.20;3.77;;;;;;;10.62;73.13;99859.77;1731311;82;20123;-47
2021/06/02 02:49:48;;;;;;;6.55;3.45;;;;;;;10.62;73.23;99861.11;1723904;82;21047;-47
2021/06/02 02:52:43;;;;;;;4.25;3.12;;;;;;;10.64;73.29;99869.13;1733159;82;20991;-48
2021/06/02 02:55:31;;;;;;;5.50;3.35;;;;;;;10.64;73.33;99869.13;1686942;82;20960;-47
2021/06/02 02:58:35;;;;;;;8.73;3.47;;;;;;;10.66;73.12;99887.47;1732552;82;21373;-47
2021/06/02 03:01:27;;;;;;;7.90;3.60;;;;;;;10.66;73.12;99887.47;1732280;82;20850;-47
2021/06/02 03:04:08;;;;;;;5.87;3.40;;;;;;;10.68;73.24;99878.82;1733113;82;20952;-47
2021/06/02 03:06:38;;;;;;;3.47;2.80;;;;;;;10.70;73.21;99879.61;1732663;82;21453;-48
2021/06/02 03:09:39;;;;;;;6.15;3.40;;;;;;;10.74;72.61;99877.17;1733524;82;20872;-48
2021/06/02 03:12:39;;;;;;;7.20;3.60;;;;;;;10.74;72.61;99877.17;1724980;82;21111;-52
2021/06/02 03:15:29;;;;;;;5.22;3.25;;;;;;;10.78;72.92;99873.85;1732804;82;21041;-53
2021/06/02 03:18:04;;;;;;;6.37;3.60;;;;;;;10.83;72.92;99876.72;1731101;81;21436;-46
2021/06/02 03:20:43;;;;;;;5.17;3.37;;;;;;;10.86;72.40;99875.20;1708505;82;20932;-47
2021/06/02 03:23:57;;;;;;;5.75;3.50;;;;;;;10.86;72.40;99875.20;1731380;82;20983;-48
2021/06/02 03:26:34;;;;;;;6.90;3.12;;;;;;;10.90;72.74;99883.55;1731448;82;21115;-47
2021/06/02 03:29:22;;;;;;;7.60;3.40;;;;;;;10.93;72.38;99890.64;1731436;82;20880;-48
2021/06/02 03:32:07;;;;;;;5.12;3.40;;;;;;;10.95;72.33;99883.33;1718503;82;20893;-47
2021/06/02 03:34:45;;;;;;;6.78;3.33;;;;;;;10.95;72.33;99883.33;1732493;82;20928;-47
2021/06/02 03:38:07;;;;;;;9.38;3.70;;;;;;;10.98;72.26;99886.77;1731848;82;21489;-48
2021/06/02 03:41:05;;;;;;;8.05;3.67;;;;;;;11.00;71.89;99889.38;1733621;82;21349;-52
2021/06/02 03:43:35;;;;;;;5.87;3.62;;;;;;;11.06;71.72;99886.84;1684645;82;21482;-54
2021/06/02 03:46:20;;;;;;;7.80;3.55;;;;;;;11.10;71.70;99889.80;1711000;82;20964;-56
2021/06/02 03:49:07;;;;;;;10.43;3.92;;;;;;;11.10;71.70;99889.80;1731135;82;20959;-56
2021/06/02 03:51:50;;;;;;;3.35;2.85;;;;;;;11.14;71.30;99880.59;1723756;82;20928;-54
2021/06/02 03:54:34;;;;;;;7.72;3.12;;;;;;;11.19;70.97;99887.99;1713198;82;21095;-56
2021/06/02 03:57:29;;;;;;;11.43;4.05;;;;;;;11.25;70.92;99884.98;1732191;82;20861;-55
2021/06/02 04:00:11;;;;;;;5.80;3.45;;;;;;;11.32;70.57;99862.09;1732235;82;20908;-55
2021/06/02 04:03:16;;;;;;;5.10;3.00;;;;;;;11.32;70.57;99862.09;1732716;82;20916;-54
2021/06/02 04:06:17;;;;;;;5.25;2.60;;;;;;;11.35;70.04;99856.55;1732936;82;20948;-54
2021/06/02 04:08:58;;;;;;;12.15;3.62;;;;;;;11.41;69.61;99881.88;1733009;82;21155;-56
2021/06/02 04:11:53;;;;;;;8.23;2.95;;;;;;;11.47;69.39;99874.81;1732491;82;21028;-55
2021/06/02 04:14:35;;;;;;;6.30;2.72;;;;;;;11.53;68.82;99893.39;1705893;82;21491;-55
2021/06/02 04:17:03;;;;;;;4.20;2.20;;;;;;;11.62;68.46;99869.57;1729001;82;20937;-56
2021/06/02 04:19:32;;;;;;;6.83;2.45;;;;;;;11.67;68.13;99881.88;1732534;82;21009;-57
2021/06/02 04:22:07;;;;;;;6.37;3.42;;;;;;;11.75;67.15;99873.36;1733095;82;21089;-57
2021/06/02 04:24:37;;;;;;;5.78;2.83;;;;;;;11.82;66.69;99872.09;1732137;82;21345;-56
2021/06/02 04:27:04;;;;;;;5.58;3.30;;;;;;;11.89;66.31;99873.53;1733910;82;20884;-56
2021/06/02 04:29:31;;;;;;;7.33;2.72;;;;;;;11.96;65.98;99888.45;1731688;82;20978;-55
2021/06/02 04:32:05;;;;;;;6.97;2.33;;;;;;;12.02;65.69;99884.06;1732752;82;21473;-57
2021/06/02 04:34:32;;;;;;;4.42;2.67;;;;;;;12.05;65.25;99877.16;1729654;82;21165;-56
2021/06/02 04:37:00;;;;;;;3.98;2.95;;;;;;;12.10;65.31;99878.74;1731296;82;21520;-58
2021/06/02 04:39:29;;;;;;;3.40;2.10;;;;;;;12.12;65.17;99884.92;1731867;82;21506;-57
2021/06/02 04:41:58;;;;;;;7.00;2.45;;;;;;;12.13;64.74;99863.69;1730814;82;20964;-55
2021/06/02 04:44:27;;;;;;;4.72;2.70;;;;;;;12.13;64.52;99867.74;1731197;82;21365;-56
2021/06/02 04:46:54;;;;;;;5.28;2.70;;;;;;;12.14;64.61;99866.78;1731352;82;21521;-56
2021/06/02 04:49:55;;;;;;;7.80;2.42;;;;;;;12.13;64.45;99884.84;1731024;82;21055;-60
2021/06/02 04:52:45;;;;;;;4.45;3.10;;;;;;;12.16;64.22;99864.88;1695134;83;20912;-55
2021/06/02 04:55:51;;;;;;;5.90;2.50;;;;;;;12.19;64.18;99879.57;1684964;83;21654;-56
2021/06/02 04:58:28;;;;;;;12.53;3.05;;;;;;;12.19;64.14;99870.98;1691159;84;20951;-57
2021/06/02 05:01:37;;;;;;;9.45;3.00;;;;;;;12.23;64.26;99882.50;1661195;84;21515;-59
2021/06/02 05:04:49;;;;;;;4.45;2.40;;;;;;;12.28;64.03;99872.31;1691681;83;21630;-55
2021/06/02 05:07:43;;;;;;;4.17;2.70;;;;;;;12.32;64.12;99877.47;1689423;84;20992;-57
2021/06/02 05:10:36;;;;;;;5.20;2.70;;;;;;;12.40;63.96;99867.56;1666640;83;20887;-57
2021/06/02 05:13:59;;;;;;;4.83;2.52;;;;;;;12.49;63.84;99885.99;1672780;83;20951;-57
2021/06/02 05:16:58;;;;;;;8.65;2.72;;;;;;;12.58;63.53;99870.61;1697010;84;20919;-54
2021/06/02 05:20:04;;;;;;;6.25;2.98;;;;;;;12.69;62.89;99874.53;1705160;83;20963;-55
2021/06/02 05:23:17;;;;;;;3.25;2.37;;;;;;;12.76;62.93;99902.98;1679053;84;20915;-54
2021/06/02 05:26:18;;;;;;;4.20;2.30;;;;;;;12.82;62.64;99891.80;1697282;83;20980;-54
2021/06/02 05:29:11;;;;;;;4.28;2.52;;;;;;;12.80;62.61;99877.50;1679131;85;20985;-54
2021/06/02 05:32:04;;;;;;;5.78;2.87;;;;;;;12.81;62.76;99900.41;1685717;83;21115;-54
2021/06/02 05:34:54;;;;;;;4.78;2.70;;;;;;;12.81;62.56;99874.69;1696946;84;21034;-55
2021/06/02 05:38:19;;;;;;;5.30;2.67;;;;;;;12.78;62.96;99892.93;1678869;85;21322;-55
2021/06/02 05:41:29;;;;;;;5.72;2.65;;;;;;;12.78;63.05;99888.42;1693073;84;21078;-54
2021/06/02 05:44:18;;;;;;;4.95;2.65;;;;;;;12.76;63.36;99892.16;1695185;84;21500;-54
2021/06/02 05:47:27;;;;;;;4.50;2.85;;;;;;;12.75;63.76;99880.95;1694512;84;21441;-54
2021/06/02 05:50:31;;;;;;;4.58;2.30;;;;;;;12.75;63.81;99891.77;1692992;84;20987;-53
2021/06/02 05:53:32;;;;;;;7.85;2.77;;;;;;;12.78;64.00;99899.70;1693804;84;20948;-51
2021/06/02 05:56:06;;;;;;;5.47;2.37;;;;;;;12.77;64.43;99888.48;1695040;84;21431;-52
2021/06/02 05:59:15;;;;;;;6.65;2.95;;;;;;;12.74;65.23;99888.67;1695131;84;20939;-48
2021/06/02 06:02:32;;;;;;;6.75;2.58;;;;;;;12.70;66.45;99882.56;1694422;84;21122;-52
2021/06/02 06:05:20;;;;;;;5.60;2.72;;;;;;;12.55;67.77;99888.34;1694952;84;21015;-51
2021/06/02 06:08:35;;;;;;;5.58;2.58;;;;;;;12.47;68.63;99891.98;1696026;84;20967;-52
2021/06/02 06:11:31;;;;;;;5.33;2.72;;;;;;;12.43;68.34;99890.39;1687181;83;20896;-50
2021/06/02 06:14:48;;;;;;;7.17;2.70;;;;;;;12.43;68.66;99894.94;1684572;85;21437;-52
2021/06/02 06:17:35;;;;;;;3.62;2.85;;;;;;;12.45;68.44;99899.28;1684072;85;21077;-51
2021/06/02 06:20:27;;;;;;;8.13;2.85;;;;;;;12.52;68.40;99900.71;1683881;85;20983;-51
2021/06/02 06:23:24;;;;;;;4.95;2.22;;;;;;;12.59;68.62;99910.22;1684560;85;21028;-53
2021/06/02 06:26:00;;;;;;;5.20;2.77;;;;;;;12.66;68.16;99917.98;1685212;84;21024;-50
2021/06/02 06:28:52;;;;;;;10.08;2.77;;;;;;;12.69;68.54;99904.30;1685887;85;21492;-51
2021/06/02 06:31:25;;;;;;;4.97;2.98;;;;;;;12.75;67.61;99895.83;1685966;84;21759;-53
2021/06/02 06:33:52;;;;;;;5.03;2.55;;;;;;;12.84;67.37;99900.73;1685732;85;20932;-52
2021/06/02 06:36:21;;;;;;;5.40;2.67;;;;;;;12.93;66.35;99889.34;1676994;84;20951;-50
2021/06/02 06:39:12;;;;;;;6.87;3.27;;;;;;;13.03;66.45;99882.92;1693119;84;20999;-51
2021/06/02 06:41:41;;;;;;;8.10;3.05;;;;;;;13.18;66.28;99889.28;1692572;84;20963;-52
2021/06/02 06:44:08;;;;;;;5.28;2.47;;;;;;;13.38;66.02;99876.83;1662936;84;21232;-51
2021/06/02 06:46:35;;;;;;;4.15;2.40;;;;;;;13.53;65.95;99901.65;1693212;84;20993;-51
2021/06/02 06:49:04;;;;;;;4.08;2.55;;;;;;;13.67;63.57;99901.29;1691705;84;21063;-52
2021/06/02 06:51:31;;;;;;;3.72;2.22;;;;;;;13.75;62.81;99866.47;1692654;84;20999;-51
2021/06/02 06:53:58;;;;;;;6.47;2.33;;;;;;;13.83;61.83;99900.73;1686948;83;21075;-52
2021/06/02 06:56:26;;;;;;;6.25;2.27;;;;;;;13.90;61.76;99887.19;1692645;84;21290;-51
2021/06/02 06:58:53;;;;;;;3.65;2.20;;;;;;;13.99;61.74;99879.84;1685294;84;21091;-52
2021/06/02 07:01:20;;;;;;;4.83;2.50;;;;;;;14.06;60.35;99878.97;1675240;84;21112;-51
2021/06/02 07:03:47;;;;;;;4.67;2.45;;;;;;;14.09;60.74;99885.09;1693317;84;21019;-51
2021/06/02 07:06:15;;;;;;;3.98;2.22;;;;;;;14.11;60.30;99888.59;1693601;84;20943;-51
2021/06/02 07:08:43;;;;;;;6.75;2.27;;;;;;;14.13;60.02;99867.66;1663701;84;21146;-51
2021/06/02 07:11:14;;;;;;;5.75;3.47;;;;;;;14.14;60.19;99869.39;1692904;83;21412;-52
2021/06/02 07:13:41;;;;;;;6.28;2.22;;;;;;;14.21;60.75;99882.56;1693284;84;20976;-52
2021/06/02 07:16:11;;;;;;;5.40;2.25;;;;;;;14.24;59.26;99863.39;1693437;84;20967;-51
2021/06/02 07:18:44;;;;;;;2.50;2.10;;;;;;;14.28;59.69;99867.66;1693527;84;20939;-50
2021/06/02 07:21:13;;;;;;;4.95;2.22;;;;;;;14.35;59.80;99868.52;1693115;84;21071;-51
2021/06/02 07:23:41;;;;;;;6.53;2.17;;;;;;;14.46;59.24;99892.25;1692864;83;21571;-49
2021/06/02 07:26:08;;;;;;;4.20;2.40;;;;;;;14.50;58.40;99878.91;1693900;83;20939;-50
2021/06/02 07:28:39;;;;;;;7.00;2.67;;;;;;;14.52;58.72;99890.53;1693083;84;21496;-50
2021/06/02 07:31:07;;;;;;;;;;;;;;;14.55;58.80;99882.20;1695373;84;21110;-50
2021/06/02 07:33:35;;;;;;;2.72;2.10;;;;;;;14.57;58.76;99873.95;1693602;84;21173;-49
2021/06/02 07:36:02;;;;;;;4.78;1.87;;;;;;;14.60;58.54;99879.20;1693028;84;20944;-50
2021/06/02 07:38:29;;;;;;;2.77;1.67;;;;;;;14.63;58.13;99881.20;1692968;84;21011;-50
2021/06/02 07:40:56;;;;;;;10.90;2.98;;;;;;;14.68;57.96;99880.42;1692931;84;21469;-50
2021/06/02 07:43:23;;;;;;;4.87;1.60;;;;;;;14.71;57.35;99886.64;1692828;83;20968;-49
2021/06/02 07:45:50;;;;;;;3.40;2.20;;;;;;;14.68;57.18;99889.92;1692202;84;21954;-49
2021/06/02 07:48:17;;;;;;;2.72;1.90;;;;;;;14.67;57.20;99893.62;1692602;83;20943;-50
2021/06/02 07:50:44;;;;;;;6.30;2.50;;;;;;;14.65;56.60;99896.93;1692933;84;20992;-51
2021/06/02 07:53:11;;;;;;;4.95;2.33;;;;;;;14.65;56.79;99898.28;1692091;84;21497;-50
2021/06/02 07:55:39;;;;;;;3.65;2.22;;;;;;;14.67;56.99;99910.39;1692760;84;21059;-49
2021/06/02 07:58:07;;;;;;;4.40;2.40;;;;;;;14.66;56.81;99920.38;1692774;83;20948;-50
2021/06/02 08:00:34;;;;;;;3.35;2.65;;;;;;;14.64;56.47;99906.02;1693175;84;20972;-51
2021/06/02 08:03:04;;;;;;;6.78;3.22;;;;;;;14.63;56.88;99904.28;1670793;85;20959;-52
2021/06/02 08:05:31;;;;;;;10.45;3.33;;;;;;;14.66;57.37;99906.81;1694574;84;20976;-49
2021/06/02 08:07:58;;;;;;;5.15;2.30;;;;;;;14.71;56.78;99894.79;1694548;84;20967;-50
2021/06/02 08:10:26;;;;;;;9.88;2.05;;;;;;;14.74;56.26;99907.66;1693862;84;21090;-50
2021/06/02 08:12:53;;;;;;;14.18;2.40;;;;;;;14.72;55.94;99921.83;1689777;83;20907;-51
2021/06/02 08:15:21;;;;;;;3.35;2.20;;;;;;;14.70;55.81;99902.06;1682702;84;20931;-50
2021/06/02 08:17:48;;;;;;;4.20;2.30;;;;;;;14.65;55.94;99913.22;1698780;84;20971;-49
2021/06/02 08:20:16;;;;;;;5.10;2.00;;;;;;;14.65;56.21;99909.14;1707943;83;20928;-50
2021/06/02 08:22:45;;;;;;;2.80;2.15;;;;;;;14.70;56.02;99903.88;1698381;84;21278;-50
2021/06/02 08:25:14;;;;;;;3.60;2.42;;;;;;;14.74;56.26;99887.30;1707114;82;21073;-50
2021/06/02 08:27:44;;;;;;;7.30;2.42;;;;;;;14.81;56.37;99914.94;1698148;84;20987;-50
2021/06/02 08:30:12;;;;;;;3.27;2.00;;;;;;;14.87;56.03;99909.11;1708201;83;20962;-50
2021/06/02 08:32:39;;;;;;;7.37;2.15;;;;;;;14.90;55.41;99977.64;1699096;84;21014;-50
2021/06/02 08:35:07;;;;;;;4.97;1.75;;;;;;;14.92;55.59;99920.54;1708787;83;21107;-50
2021/06/02 08:37:34;;;;;;;6.78;2.15;;;;;;;14.92;55.43;99917.83;1697784;84;20904;-50
2021/06/02 08:40:01;;;;;;;4.87;2.27;;;;;;;14.96;55.24;99919.34;1681355;85;21455;-50
2021/06/02 08:42:28;;;;;;;6.65;2.70;;;;;;;14.99;55.42;99924.59;1681080;83;21510;-52
2021/06/02 08:44:55;;;;;;;5.05;2.52;;;;;;;15.02;55.53;99921.69;1697998;84;21031;-49
2021/06/02 08:47:23;;;;;;;5.97;2.50;;;;;;;15.07;55.75;99916.78;1707161;83;21169;-51
2021/06/02 08:49:51;;;;;;;9.33;3.05;;;;;;;15.10;55.81;99922.52;1698019;84;21062;-51
2021/06/02 08:52:18;;;;;;;4.83;2.10;;;;;;;15.12;55.50;99925.50;1706441;82;21034;-50
2021/06/02 08:54:46;;;;;;;4.72;2.35;;;;;;;15.11;54.79;99916.11;1698745;84;21019;-50
2021/06/02 08:57:13;;;;;;;4.50;2.22;;;;;;;15.07;55.31;99919.50;1655175;85;20952;-49
2021/06/02 08:59:40;;;;;;;4.70;2.12;;;;;;;15.05;55.37;99917.39;1681320;85;21154;-50
2021/06/02 09:02:07;;;;;;;3.33;1.80;;;;;;;15.05;55.06;99932.33;1680426;85;20940;-50
2021/06/02 09:04:34;;;;;;;3.08;2.00;;;;;;;15.05;55.50;99930.97;1680923;84;20997;-50
2021/06/02 09:07:06;;;;;;;6.80;2.25;;;;;;;15.03;55.87;99931.56;1680620;85;20947;-52
2021/06/02 09:09:33;;;;;;;8.45;2.67;;;;;;;15.04;56.29;99940.09;1681109;85;21644;-50
2021/06/02 09:12:07;;;;;;;4.78;2.15;;;;;;;15.05;55.95;99932.33;1679464;84;21140;-50
2021/06/02 09:14:38;;;;;;;4.50;2.30;;;;;;;15.04;55.96;99937.38;1677842;85;21639;-51
2021/06/02 09:17:13;;;;;;;9.25;2.30;;;;;;;15.04;56.13;99916.14;1677750;85;21009;-50
2021/06/02 09:19:45;;;;;;;9.63;2.37;;;;;;;15.01;56.69;99917.20;1678395;85;21506;-50
2021/06/02 09:22:18;;;;;;;4.22;1.87;;;;;;;14.94;56.75;99933.52;1678221;85;21639;-50
2021/06/02 09:24:58;;;;;;;3.92;2.10;;;;;;;14.87;56.54;99910.46;1678215;85;21197;-50
2021/06/02 09:27:57;;;;;;;4.75;2.22;;;;;;;14.83;56.69;99912.98;1678119;85;21473;-49
2021/06/02 09:30:26;;;;;;;6.05;1.82;;;;;;;14.82;57.05;99916.68;1678382;85;21431;-51
2021/06/02 09:32:56;;;;;;;4.70;2.58;;;;;;;14.85;57.17;99919.17;1678086;85;20920;-51
2021/06/02 09:35:38;;;;;;;4.58;2.05;;;;;;;14.89;57.30;99910.73;1679421;85;21621;-50
2021/06/02 09:38:06;;;;;;;7.15;2.55;;;;;;;14.94;57.01;99915.38;1678346;85;21609;-50
2021/06/02 09:40:36;;;;;;;4.65;2.22;;;;;;;14.99;56.10;99902.86;1677631;85;21554;-50
2021/06/02 09:43:04;;;;;;;6.30;2.00;;;;;;;15.03;56.08;99907.13;1677679;84;21070;-50
2021/06/02 09:45:31;;;;;;;3.00;1.72;;;;;;;15.12;56.47;99913.77;1678543;85;21554;-49
2021/06/02 09:48:00;;;;;;;5.25;2.00;;;;;;;15.18;55.74;99918.33;1677372;85;20984;-50
2021/06/02 09:50:34;;;;;;;3.20;2.12;;;;;;;15.25;55.44;99928.78;1678208;85;21786;-49
2021/06/02 09:53:06;;;;;;;4.30;1.95;;;;;;;15.32;55.58;99918.75;1677971;85;20909;-50
2021/06/02 09:55:35;;;;;;;;;;;;;;;15.39;55.61;99924.63;1681367;85;21041;-49
2021/06/02 09:58:10;;;;;;;5.58;1.67;;;;;;;15.47;55.08;99929.08;1678229;85;20135;-51
2021/06/02 10:00:42;;;;;;;2.83;2.00;;;;;;;15.51;54.70;99925.67;1678893;85;20960;-50
2021/06/02 10:03:15;;;;;;;2.30;1.57;;;;;;;15.55;54.85;99941.64;1678516;85;21135;-49
2021/06/02 10:05:48;;;;;;;4.30;1.72;;;;;;;15.59;54.22;99922.80;1678415;85;21211;-54
2021/06/02 10:08:33;;;;;;;2.92;1.85;;;;;;;15.63;53.95;99950.20;1678142;85;20988;-46
2021/06/02 10:11:12;;;;;;;6.58;2.33;;;;;;;15.68;53.91;99918.13;1680302;84;21004;-46
2021/06/02 10:13:39;;;;;;;5.08;1.62;;;;;;;15.74;53.17;99928.21;1718496;83;20934;-46
2021/06/02 10:16:09;;;;;;;5.30;2.45;;;;;;;15.80;52.58;99919.63;1688105;84;21570;-46
2021/06/02 10:18:38;;;;;;;4.90;1.72;;;;;;;15.86;52.59;99925.99;1695360;83;20927;-47
2021/06/02 10:21:10;;;;;;;2.33;1.50;;;;;;;15.92;52.60;99924.20;1690014;84;21022;-47
2021/06/02 10:23:44;;;;;;;3.25;1.60;;;;;;;15.97;52.27;99945.16;1702919;82;21581;-48
2021/06/02 10:26:13;;;;;;;1.90;1.50;;;;;;;16.01;51.94;99933.09;1666781;84;20942;-47
2021/06/02 10:28:43;;;;;;;9.25;2.30;;;;;;;16.05;51.99;99937.34;1718083;83;20965;-46
2021/06/02 10:31:11;;;;;;;6.75;1.95;;;;;;;16.08;52.32;99931.67;1668518;83;21711;-48
2021/06/02 10:33:37;;;;;;;9.25;2.77;;;;;;;16.11;52.21;99945.08;1691029;84;20970;-51
2021/06/02 10:36:07;;;;;;;3.35;1.70;;;;;;;16.14;52.12;99944.88;1716638;83;22002;-51
2021/06/02 10:39:00;;;;;;;4.35;1.52;;;;;;;16.16;51.87;99929.79;1719328;83;20990;-52
2021/06/02 10:41:34;;;;;;;5.60;2.15;;;;;;;16.18;51.93;99946.38;1690721;84;21181;-50
2021/06/02 10:44:09;;;;;;;7.15;1.80;;;;;;;16.20;51.33;99948.52;1716672;83;20998;-52
2021/06/02 10:46:41;;;;;;;5.22;1.50;;;;;;;16.22;50.82;99932.94;1687658;84;20947;-53
2021/06/02 10:49:09;;;;;;;5.55;1.92;;;;;;;16.24;51.19;99943.25;1702231;83;20942;-52
2021/06/02 10:51:43;;;;;;;5.65;1.67;;;;;;;16.29;50.85;99952.91;1685036;85;20916;-52
2021/06/02 10:54:21;;;;;;;7.87;1.75;;;;;;;16.28;50.95;99937.57;1696372;84;21117;-51
2021/06/02 10:57:04;;;;;;;2.65;1.52;;;;;;;16.27;50.67;99946.72;1667278;84;21144;-51
2021/06/02 10:59:37;;;;;;;9.80;1.80;;;;;;;16.28;50.37;99904.91;1695658;83;21199;-51
2021/06/02 11:02:30;;;;;;;5.17;1.80;;;;;;;16.27;50.92;99945.36;1695909;84;20979;-50
2021/06/02 11:05:07;;;;;;;4.47;1.75;;;;;;;16.29;50.81;99931.14;1696220;84;20955;-50
2021/06/02 11:07:36;;;;;;;4.03;1.60;;;;;;;16.29;50.71;99961.95;1695615;84;21143;-49
2021/06/02 11:10:12;;;;;;;4.45;1.80;;;;;;;16.28;50.51;99949.81;1695769;84;20987;-53
2021/06/02 11:12:57;;;;;;;4.35;1.62;;;;;;;16.30;50.52;99951.92;1688735;84;21805;-51
2021/06/02 11:19:21;;;;;;;3.27;1.60;;;;;;;16.41;50.06;99927.56;1850295;75;23171;-52
2021/06/02 11:21:58;;;;;;;7.30;1.70;;;;;;;16.38;50.08;99964.52;1824336;77;20864;-52
2021/06/02 11:24:40;;;;;;;12.88;2.83;;;;;;;16.42;49.77;99948.36;1823942;78;22218;-52
2021/06/02 11:27:15;;;;;;;8.45;2.27;;;;;;;16.44;50.00;99946.39;1823518;77;21448;-51
2021/06/02 11:29:57;;;;;;;4.28;1.90;;;;;;;16.47;50.41;99948.41;1823165;77;20859;-52
2021/06/02 11:32:30;;;;;;;4.95;1.75;;;;;;;16.53;49.90;99956.63;1824811;77;20949;-46
2021/06/02 11:35:05;;;;;;;3.15;2.00;;;;;;;16.58;49.80;99940.83;1824832;77;20938;-46
2021/06/02 11:37:35;;;;;;;4.15;1.75;;;;;;;16.64;49.62;99951.77;1824404;77;20875;-46
2021/06/02 11:43:42;;;;;;;4.72;2.67;;;;;;;16.80;48.74;99953.80;1777595;78;22802;-46
2021/06/02 11:46:09;;;;;;;5.67;1.92;;;;;;;16.79;48.88;99948.47;1753724;80;21025;-46
2021/06/02 11:48:37;;;;;;;3.35;1.65;;;;;;;16.81;48.48;99947.85;1742664;81;21105;-46
2021/06/02 11:51:06;;;;;;;3.52;1.50;;;;;;;16.84;48.54;99949.88;1753654;81;20919;-46
2021/06/02 11:53:40;;;;;;;2.55;1.67;;;;;;;16.90;48.62;99952.64;1750076;81;21550;-46
2021/06/02 11:56:07;;;;;;;7.78;1.85;;;;;;;16.92;48.28;99945.21;1726955;81;20907;-47
2021/06/02 11:58:34;;;;;;;7.28;2.42;;;;;;;16.99;48.52;99945.13;1727184;81;21004;-46
2021/06/02 12:01:01;;;;;;;4.42;2.10;;;;;;;17.06;47.66;99940.98;1745189;80;21176;-47
2021/06/02 12:03:28;;;;;;;6.67;2.35;;;;;;;17.12;47.90;99932.34;1749928;81;20922;-46
2021/06/02 12:05:55;;;;;;;6.60;2.50;;;;;;;17.21;48.16;99939.84;1736238;81;21080;-50
2021/06/02 12:08:24;;;;;;;4.87;1.30;;;;;;;17.28;47.19;99932.94;1750892;81;21173;-52
2021/06/02 12:10:57;;;;;;;5.12;1.75;;;;;;;17.36;47.15;99958.74;1744163;80;21605;-52
2021/06/02 12:13:35;;;;;;;5.87;1.80;;;;;;;17.39;46.43;99955.80;1731714;81;20911;-52
2021/06/02 12:16:04;;;;;;;5.10;1.77;;;;;;;17.41;46.90;99941.05;1727567;81;21018;-51
2021/06/02 12:18:43;;;;;;;4.85;1.98;;;;;;;17.49;47.14;99936.41;1742521;81;20927;-50
2021/06/02 12:21:26;;;;;;;10.43;2.45;;;;;;;17.56;46.68;99939.03;1740071;81;20958;-51
2021/06/02 12:24:04;;;;;;;6.67;2.00;;;;;;;17.60;47.02;99929.62;1747726;81;21018;-51
2021/06/02 12:26:40;;;;;;;8.13;1.87;;;;;;;17.66;47.35;99940.06;1755422;81;20966;-52
2021/06/02 12:29:11;;;;;;;5.83;2.08;;;;;;;17.78;46.57;99925.50;1757487;80;20931;-52
2021/06/02 12:31:46;;;;;;;2.27;1.50;;;;;;;17.85;46.02;99935.97;1752433;81;20926;-51
2021/06/02 12:34:19;;;;;;;7.67;1.80;;;;;;;17.90;45.38;99936.48;1683265;83;20963;-52
2021/06/02 12:36:51;;;;;;;8.35;2.80;;;;;;;17.93;45.31;99933.00;1709204;82;21064;-53
2021/06/02 12:39:22;;;;;;;5.33;1.90;;;;;;;17.96;45.19;99945.06;1717843;83;21513;-52
2021/06/02 12:41:52;;;;;;;4.87;1.90;;;;;;;17.99;44.56;99952.12;1699913;83;20993;-52
2021/06/02 12:44:30;;;;;;;9.85;2.00;;;;;;;17.99;44.67;99942.57;1674713;84;21469;-51